createdAt,value
2022-09-17T00:02:47.828Z,59.20
2022-09-17T00:07:51.863Z,59.30
2022-09-17T00:12:54.402Z,59.30
2022-09-17T00:17:58.169Z,59.20
2022-09-17T00:23:00.442Z,59.40
2022-09-17T00:28:02.695Z,59.40
2022-09-17T00:33:04.976Z,59.50
2022-09-17T00:38:07.414Z,59.20
2022-09-17T00:43:12.448Z,59.30
2022-09-17T00:48:14.767Z,59.50
2022-09-17T00:53:20.503Z,59.50
2022-09-17T00:58:24.587Z,59.60
2022-09-17T01:03:27.207Z,59.70
2022-09-17T01:24:38.293Z,59.60
2022-09-17T01:40:29.445Z,60.10
2022-09-17T01:50:55.766Z,59.80
2022-09-17T01:55:59.877Z,60.00
2022-09-17T02:01:06.647Z,60.10
2022-09-17T02:06:17.839Z,60.20
2022-09-17T02:11:20.876Z,60.00
2022-09-17T02:16:27.050Z,59.80
2022-09-17T02:26:49.637Z,59.90
2022-09-17T02:31:51.981Z,59.80
2022-09-17T02:36:55.249Z,59.70
2022-09-17T02:42:26.610Z,59.60
2022-09-17T02:48:08.732Z,59.70
2022-09-17T03:03:43.361Z,59.60
2022-09-17T03:08:47.648Z,59.60
2022-09-17T03:13:50.064Z,60.20
2022-09-17T03:18:52.261Z,59.60
2022-09-17T03:23:54.461Z,59.60
2022-09-17T03:28:56.979Z,59.50
2022-09-17T03:33:59.236Z,59.50
2022-09-17T03:39:01.788Z,59.50
2022-09-17T03:44:04.307Z,59.50
2022-09-17T03:49:06.635Z,59.20
2022-09-17T03:54:09.386Z,59.40
2022-09-17T03:59:11.644Z,59.50
2022-09-17T04:04:13.882Z,59.60
2022-09-17T04:09:16.257Z,59.50
2022-09-17T04:14:18.448Z,59.50
2022-09-17T04:19:20.691Z,59.70
2022-09-17T04:24:22.920Z,59.60
2022-09-17T04:29:25.140Z,59.80
2022-09-17T04:34:27.448Z,59.60
2022-09-17T04:39:29.973Z,59.80
2022-09-17T04:44:32.243Z,59.90
2022-09-17T04:49:34.540Z,60.20
2022-09-17T04:54:36.751Z,60.10
2022-09-17T04:59:38.953Z,60.10
2022-09-17T05:04:41.346Z,60.20
2022-09-17T05:09:43.585Z,60.20
2022-09-17T05:14:45.982Z,60.40
2022-09-17T05:19:48.195Z,60.40
2022-09-17T05:24:50.499Z,60.60
2022-09-17T05:29:52.708Z,60.80
2022-09-17T05:34:56.256Z,61.00
2022-09-17T05:39:58.653Z,60.90
2022-09-17T05:45:00.936Z,60.30
2022-09-17T05:50:03.667Z,60.40
2022-09-17T05:55:06.163Z,59.60
2022-09-17T06:00:09.497Z,60.00
2022-09-17T06:05:25.294Z,60.20
2022-09-17T06:10:27.618Z,59.60
2022-09-17T06:15:29.959Z,60.20
2022-09-17T06:20:32.653Z,59.80
2022-09-17T06:25:35.372Z,60.10
2022-09-17T06:30:37.596Z,59.60
2022-09-17T06:35:40.111Z,61.20
2022-09-17T06:40:42.531Z,60.50
2022-09-17T06:45:44.878Z,60.30
2022-09-17T06:50:47.198Z,62.00
2022-09-17T06:55:49.744Z,60.00
2022-09-17T07:00:52.240Z,56.90
2022-09-17T07:05:54.977Z,55.70
2022-09-17T07:10:58.186Z,54.90
2022-09-17T07:16:02.413Z,52.90
2022-09-17T07:21:06.384Z,49.90
2022-09-17T07:26:14.168Z,49.50
2022-09-17T07:31:17.083Z,47.60
2022-09-17T10:27:21.665Z,62.40
2022-09-17T10:32:24.224Z,63.10
2022-09-17T10:42:45.775Z,63.50
2022-09-17T10:47:48.049Z,64.10
2022-09-17T10:52:54.027Z,65.00
2022-09-17T11:03:49.999Z,65.40
2022-09-17T11:35:52.030Z,69.00
2022-09-17T11:46:20.752Z,69.80
2022-09-17T11:51:47.764Z,67.50
2022-09-17T11:56:53.725Z,68.60
2022-09-17T12:02:02.622Z,68.10
2022-09-17T12:07:31.599Z,68.00
2022-09-17T12:12:50.405Z,67.70
2022-09-17T12:23:16.821Z,67.30
2022-09-17T12:28:27.283Z,68.50
2022-09-17T12:33:37.775Z,68.70
2022-09-17T12:39:15.342Z,67.70
2022-09-17T13:00:07.725Z,68.00
2022-09-17T13:10:59.799Z,66.90
2022-09-17T13:26:41.203Z,66.40
2022-09-17T13:36:55.253Z,68.00
2022-09-17T13:42:08.179Z,67.80
2022-09-17T13:52:33.323Z,68.00
2022-09-17T13:57:48.447Z,65.80
2022-09-17T14:02:50.719Z,64.70
2022-09-17T14:08:11.968Z,65.50
2022-09-17T14:18:56.496Z,65.10
2022-09-17T14:24:02.628Z,65.90
2022-09-17T14:29:20.739Z,65.00
2022-09-17T14:34:24.886Z,65.40
2022-09-17T14:39:38.144Z,65.50
2022-09-17T14:44:51.342Z,65.70
2022-09-17T14:49:54.407Z,65.50
2022-09-17T14:55:21.299Z,65.10
2022-09-17T15:00:25.900Z,64.60
2022-09-17T15:05:33.364Z,64.90
2022-09-17T15:10:45.312Z,64.90
2022-09-17T15:15:55.653Z,65.30
2022-09-17T15:20:59.785Z,65.00
2022-09-17T15:26:03.522Z,65.20
2022-09-17T15:31:07.093Z,64.90
2022-09-17T15:41:33.565Z,65.00
2022-09-17T15:46:35.885Z,65.10
2022-09-17T15:51:38.169Z,64.90
2022-09-17T15:56:41.415Z,65.00
2022-09-17T16:12:05.059Z,64.10
2022-09-17T16:22:36.857Z,64.40
2022-09-17T16:27:47.997Z,65.10
2022-09-17T16:32:50.795Z,65.00
2022-09-17T16:37:55.151Z,65.00
2022-09-17T16:43:02.364Z,64.90
2022-09-17T16:48:05.784Z,64.80
2022-09-17T16:53:08.062Z,64.90
2022-09-17T16:58:10.392Z,65.40
2022-09-17T17:03:14.164Z,65.30
2022-09-17T17:08:16.550Z,65.40
2022-09-17T17:13:18.836Z,65.70
2022-09-17T17:18:21.932Z,66.50
2022-09-17T17:23:24.251Z,66.00
2022-09-17T17:28:26.696Z,65.50
2022-09-17T17:33:29.196Z,66.30
2022-09-17T17:38:31.421Z,66.20
2022-09-17T17:43:34.083Z,66.20
2022-09-17T17:48:36.930Z,66.00
2022-09-17T17:53:42.966Z,66.00
2022-09-17T17:58:45.273Z,65.70
2022-09-17T18:03:47.870Z,66.00
2022-09-17T18:08:50.127Z,66.10
2022-09-17T18:13:54.582Z,66.20
2022-09-17T18:18:59.336Z,66.30
2022-09-17T18:24:01.722Z,66.20
2022-09-17T18:29:07.717Z,66.20
2022-09-17T18:34:13.507Z,66.20
2022-09-17T18:44:39.259Z,66.10
2022-09-17T18:49:41.537Z,66.60
2022-09-17T18:54:46.098Z,66.40
2022-09-17T18:59:48.397Z,65.60
2022-09-17T19:04:50.622Z,66.10
2022-09-17T19:09:52.860Z,66.70
2022-09-17T19:14:55.132Z,67.90
2022-09-17T19:19:57.386Z,68.60
2022-09-17T19:24:59.812Z,68.20
2022-09-17T19:30:02.059Z,68.20
2022-09-17T19:35:05.377Z,68.40
2022-09-17T19:40:09.245Z,68.00
2022-09-17T19:45:11.582Z,68.10
2022-09-17T19:50:13.861Z,68.20
2022-09-17T19:55:16.243Z,68.30
2022-09-17T20:00:18.843Z,68.00
2022-09-17T20:05:21.077Z,68.00
2022-09-17T20:10:24.080Z,68.30
2022-09-17T20:15:26.311Z,67.90
2022-09-17T20:20:28.823Z,67.90
2022-09-17T20:25:31.094Z,68.00
2022-09-17T20:30:33.351Z,67.70
2022-09-17T20:35:36.343Z,67.90
2022-09-17T20:40:38.671Z,68.00
2022-09-17T20:45:40.957Z,68.00
2022-09-17T20:50:43.474Z,67.90
2022-09-17T20:55:54.520Z,67.80
2022-09-17T21:01:05.630Z,67.30
2022-09-17T21:06:08.083Z,67.60
2022-09-17T21:11:10.611Z,68.70
2022-09-17T21:16:13.930Z,68.90
2022-09-17T21:21:17.867Z,68.40
2022-09-17T21:26:22.690Z,69.30
2022-09-17T21:31:32.073Z,68.90
2022-09-17T21:36:37.156Z,68.20
2022-09-17T21:41:42.581Z,67.90
2022-09-17T21:46:45.442Z,68.30
2022-09-17T21:51:47.807Z,67.90
2022-09-17T21:56:50.092Z,69.20
2022-09-17T22:01:52.418Z,69.10
2022-09-17T22:06:55.598Z,69.00
2022-09-17T22:11:58.467Z,69.60
2022-09-17T22:17:01.252Z,69.70
2022-09-17T22:22:03.530Z,69.20
2022-09-17T22:27:05.930Z,69.60
2022-09-17T22:32:08.166Z,69.40
2022-09-17T22:37:10.447Z,69.30
2022-09-17T22:42:12.697Z,69.60
2022-09-17T22:47:14.942Z,69.00
2022-09-17T22:52:17.263Z,69.40
2022-09-17T22:57:19.503Z,69.20
2022-09-17T23:02:21.784Z,69.90
2022-09-17T23:07:24.116Z,69.90
2022-09-17T23:12:26.366Z,69.60
2022-09-17T23:17:29.524Z,70.50
2022-09-17T23:22:32.200Z,69.70
2022-09-17T23:27:34.496Z,69.30
2022-09-17T23:32:36.822Z,69.30
2022-09-17T23:37:39.291Z,69.40
2022-09-17T23:42:41.574Z,69.30
2022-09-17T23:47:43.792Z,69.60
2022-09-17T23:52:46.039Z,69.50
2022-09-17T23:57:48.277Z,69.80
